sensor_id;sensor_type;location;lat;lon;timestamp;pressure;altitude;pressure_sealevel;temperature;humidity
4858;BME280;58975;51.978;8.472;2022-12-01T00:01:18;101303.69;;;3.84;100.00
4858;BME280;58975;51.978;8.472;2022-12-01T00:06:17;101299.00;;;3.91;100.00
4858;BME280;58975;51.978;8.472;2022-12-01T00:11:14;101301.69;;;3.89;100.00
4858;BME280;58975;51.978;8.472;2022-12-01T00:16:12;101292.16;;;3.87;100.00
4858;BME280;58975;51.978;8.472;2022-12-01T00:21:13;101295.69;;;3.86;100.00
4858;BME280;58975;51.978;8.472;2022-12-01T00:26:10;101301.03;;;3.84;100.00
4858;BME280;58975;51.978;8.472;2022-12-01T00:31:10;101293.97;;;3.85;100.00
4858;BME280;58975;51.978;8.472;2022-12-01T00:36:07;101297.94;;;3.73;100.00
4858;BME280;58975;51.978;8.472;2022-12-01T00:41:04;101297.03;;;3.74;100.00
4858;BME280;58975;51.978;8.472;2022-12-01T00:46:00;101288.91;;;3.80;100.00
4858;BME280;58975;51.978;8.472;2022-12-01T00:50:57;101298.88;;;3.72;100.00
4858;BME280;58975;51.978;8.472;2022-12-01T00:55:53;101298.50;;;3.81;100.00
4858;BME280;58975;51.978;8.472;2022-12-01T01:00:57;101300.34;;;3.79;100.00
4858;BME280;58975;51.978;8.472;2022-12-01T01:05:54;101301.94;;;3.83;100.00
4858;BME280;58975;51.978;8.472;2022-12-01T01:10:50;101304.75;;;3.78;100.00
4858;BME280;58975;51.978;8.472;2022-12-01T01:15:56;101307.44;;;3.77;100.00
4858;BME280;58975;51.978;8.472;2022-12-01T01:20:57;101315.47;;;3.74;100.00
4858;BME280;58975;51.978;8.472;2022-12-01T01:26:22;101315.28;;;3.78;100.00
4858;BME280;58975;51.978;8.472;2022-12-01T01:31:21;101319.09;;;3.71;100.00
4858;BME280;58975;51.978;8.472;2022-12-01T01:36:18;101325.09;;;3.75;100.00
4858;BME280;58975;51.978;8.472;2022-12-01T01:41:15;101331.22;;;3.75;100.00
4858;BME280;58975;51.978;8.472;2022-12-01T01:46:26;101324.41;;;3.70;100.00
4858;BME280;58975;51.978;8.472;2022-12-01T01:51:49;101324.97;;;3.78;100.00
4858;BME280;58975;51.978;8.472;2022-12-01T01:56:48;101323.81;;;3.62;100.00
4858;BME280;58975;51.978;8.472;2022-12-01T02:01:47;101326.53;;;3.60;100.00
4858;BME280;58975;51.978;8.472;2022-12-01T02:06:48;101335.19;;;3.64;100.00
4858;BME280;58975;51.978;8.472;2022-12-01T02:17:04;101330.69;;;3.66;100.00
4858;BME280;58975;51.978;8.472;2022-12-01T02:27:36;101325.75;;;3.57;100.00
4858;BME280;58975;51.978;8.472;2022-12-01T02:38:02;101322.88;;;3.64;100.00
4858;BME280;58975;51.978;8.472;2022-12-01T02:48:34;101316.75;;;3.64;100.00
4858;BME280;58975;51.978;8.472;2022-12-01T02:53:31;101313.97;;;3.67;100.00
4858;BME280;58975;51.978;8.472;2022-12-01T02:58:27;101326.13;;;3.71;100.00
4858;BME280;58975;51.978;8.472;2022-12-01T03:03:39;101321.88;;;3.67;100.00
4858;BME280;58975;51.978;8.472;2022-12-01T03:09:07;101332.09;;;3.76;100.00
4858;BME280;58975;51.978;8.472;2022-12-01T03:19:11;101329.22;;;3.59;100.00
4858;BME280;58975;51.978;8.472;2022-12-01T03:24:21;101323.25;;;3.54;100.00
4858;BME280;58975;51.978;8.472;2022-12-01T03:29:26;101324.81;;;3.59;100.00
4858;BME280;58975;51.978;8.472;2022-12-01T03:34:42;101320.97;;;3.68;100.00
4858;BME280;58975;51.978;8.472;2022-12-01T03:39:42;101322.00;;;3.64;100.00
4858;BME280;58975;51.978;8.472;2022-12-01T03:44:46;101323.81;;;3.62;100.00
4858;BME280;58975;51.978;8.472;2022-12-01T03:49:45;101310.53;;;3.65;100.00
4858;BME280;58975;51.978;8.472;2022-12-01T03:59:49;101313.41;;;3.59;100.00
4858;BME280;58975;51.978;8.472;2022-12-01T04:04:47;101318.78;;;3.56;100.00
4858;BME280;58975;51.978;8.472;2022-12-01T04:09:43;101324.97;;;3.55;100.00
4858;BME280;58975;51.978;8.472;2022-12-01T04:14:40;101318.78;;;3.56;100.00
4858;BME280;58975;51.978;8.472;2022-12-01T04:19:36;101324.19;;;3.53;100.00
4858;BME280;58975;51.978;8.472;2022-12-01T04:24:32;101334.72;;;3.53;100.00
4858;BME280;58975;51.978;8.472;2022-12-01T04:29:29;101332.88;;;3.55;100.00
4858;BME280;58975;51.978;8.472;2022-12-01T04:34:25;101327.47;;;3.58;100.00
4858;BME280;58975;51.978;8.472;2022-12-01T04:39:22;101326.16;;;3.69;100.00
4858;BME280;58975;51.978;8.472;2022-12-01T04:44:18;101330.47;;;3.49;100.00
4858;BME280;58975;51.978;8.472;2022-12-01T04:49:15;101325.25;;;3.47;100.00
4858;BME280;58975;51.978;8.472;2022-12-01T04:54:11;101322.47;;;3.52;100.00
4858;BME280;58975;51.978;8.472;2022-12-01T04:59:08;101318.78;;;3.56;100.00
4858;BME280;58975;51.978;8.472;2022-12-01T05:04:04;101322.78;;;3.43;100.00
4858;BME280;58975;51.978;8.472;2022-12-01T05:09:00;101311.94;;;3.52;100.00
4858;BME280;58975;51.978;8.472;2022-12-01T05:13:57;101327.94;;;3.46;100.00
4858;BME280;58975;51.978;8.472;2022-12-01T05:18:56;101331.25;;;3.51;100.00
4858;BME280;58975;51.978;8.472;2022-12-01T05:24:13;101320.63;;;3.54;100.00
4858;BME280;58975;51.978;8.472;2022-12-01T05:29:10;101331.03;;;3.57;100.00
4858;BME280;58975;51.978;8.472;2022-12-01T05:34:07;101337.44;;;3.50;100.00
4858;BME280;58975;51.978;8.472;2022-12-01T05:39:04;101330.47;;;3.49;100.00
4858;BME280;58975;51.978;8.472;2022-12-01T05:44:00;101335.75;;;3.49;100.00
4858;BME280;58975;51.978;8.472;2022-12-01T05:48:57;101340.19;;;3.47;100.00
4858;BME280;58975;51.978;8.472;2022-12-01T05:53:53;101336.53;;;3.51;100.00
4858;BME280;58975;51.978;8.472;2022-12-01T05:58:50;101339.44;;;3.43;100.00
4858;BME280;58975;51.978;8.472;2022-12-01T06:03:46;101333.47;;;3.38;100.00
4858;BME280;58975;51.978;8.472;2022-12-01T06:08:43;101330.81;;;3.40;100.00
4858;BME280;58975;51.978;8.472;2022-12-01T06:13:39;101333.44;;;3.40;100.00
4858;BME280;58975;51.978;8.472;2022-12-01T06:18:37;101335.16;;;3.41;100.00
4858;BME280;58975;51.978;8.472;2022-12-01T06:23:33;101324.50;;;3.44;100.00
4858;BME280;58975;51.978;8.472;2022-12-01T06:28:30;101327.34;;;3.38;100.00
4858;BME280;58975;51.978;8.472;2022-12-01T06:33:26;101334.47;;;3.36;100.00
4858;BME280;58975;51.978;8.472;2022-12-01T06:38:22;101336.06;;;3.40;100.00
4858;BME280;58975;51.978;8.472;2022-12-01T06:43:19;101330.06;;;3.36;100.00
4858;BME280;58975;51.978;8.472;2022-12-01T06:48:15;101346.53;;;3.41;100.00
4858;BME280;58975;51.978;8.472;2022-12-01T06:53:12;101345.56;;;3.44;100.00
4858;BME280;58975;51.978;8.472;2022-12-01T06:58:08;101347.19;;;3.48;100.00
4858;BME280;58975;51.978;8.472;2022-12-01T07:03:04;101338.59;;;3.43;100.00
4858;BME280;58975;51.978;8.472;2022-12-01T07:08:02;101341.84;;;3.49;100.00
4858;BME280;58975;51.978;8.472;2022-12-01T07:12:58;101355.28;;;3.42;100.00
4858;BME280;58975;51.978;8.472;2022-12-01T07:17:55;101351.31;;;3.30;100.00
4858;BME280;58975;51.978;8.472;2022-12-01T07:22:52;101346.75;;;3.35;100.00
4858;BME280;58975;51.978;8.472;2022-12-01T07:27:49;101364.16;;;3.39;100.00
4858;BME280;58975;51.978;8.472;2022-12-01T07:32:45;101344.00;;;3.38;100.00
4858;BME280;58975;51.978;8.472;2022-12-01T07:37:41;101354.78;;;3.32;100.00
4858;BME280;58975;51.978;8.472;2022-12-01T07:42:41;101355.28;;;3.42;100.00
4858;BME280;58975;51.978;8.472;2022-12-01T07:47:37;101349.34;;;3.37;100.00
4858;BME280;58975;51.978;8.472;2022-12-01T07:52:34;101359.44;;;3.49;100.00
4858;BME280;58975;51.978;8.472;2022-12-01T07:57:30;101360.22;;;3.51;100.00
4858;BME280;58975;51.978;8.472;2022-12-01T08:02:26;101356.91;;;3.46;100.00
4858;BME280;58975;51.978;8.472;2022-12-01T08:07:23;101360.63;;;3.40;100.00
4858;BME280;58975;51.978;8.472;2022-12-01T08:12:25;101362.41;;;3.40;100.00
4858;BME280;58975;51.978;8.472;2022-12-01T08:17:21;101362.88;;;3.51;100.00
4858;BME280;58975;51.978;8.472;2022-12-01T08:22:18;101361.13;;;3.50;100.00
4858;BME280;58975;51.978;8.472;2022-12-01T08:27:14;101365.63;;;3.48;100.00
4858;BME280;58975;51.978;8.472;2022-12-01T08:32:10;101374.22;;;3.53;100.00
4858;BME280;58975;51.978;8.472;2022-12-01T08:37:07;101382.91;;;3.55;100.00
4858;BME280;58975;51.978;8.472;2022-12-01T08:42:04;101378.97;;;3.66;100.00
4858;BME280;58975;51.978;8.472;2022-12-01T08:47:01;101388.75;;;3.63;100.00
4858;BME280;58975;51.978;8.472;2022-12-01T08:51:57;101381.66;;;3.65;100.00
4858;BME280;58975;51.978;8.472;2022-12-01T08:56:53;101392.97;;;3.68;100.00
4858;BME280;58975;51.978;8.472;2022-12-01T09:01:50;101383.78;;;3.78;100.00
4858;BME280;58975;51.978;8.472;2022-12-01T09:06:51;101378.81;;;3.94;100.00
4858;BME280;58975;51.978;8.472;2022-12-01T09:11:48;101393.56;;;4.21;100.00
4858;BME280;58975;51.978;8.472;2022-12-01T09:16:46;101391.38;;;4.33;100.00
4858;BME280;58975;51.978;8.472;2022-12-01T09:21:45;101393.09;;;4.55;100.00
4858;BME280;58975;51.978;8.472;2022-12-01T09:26:42;101398.25;;;4.80;100.00
4858;BME280;58975;51.978;8.472;2022-12-01T09:31:40;101406.31;;;4.77;100.00
4858;BME280;58975;51.978;8.472;2022-12-01T09:36:37;101409.84;;;4.76;100.00
4858;BME280;58975;51.978;8.472;2022-12-01T09:46:44;101413.97;;;4.61;100.00
4858;BME280;58975;51.978;8.472;2022-12-01T09:51:42;101413.59;;;4.49;100.00
4858;BME280;58975;51.978;8.472;2022-12-01T09:56:43;101407.88;;;4.38;100.00
4858;BME280;58975;51.978;8.472;2022-12-01T10:01:42;101418.41;;;4.61;100.00
4858;BME280;58975;51.978;8.472;2022-12-01T10:06:41;101409.56;;;4.62;100.00
4858;BME280;58975;51.978;8.472;2022-12-01T10:11:42;101413.00;;;4.64;100.00
4858;BME280;58975;51.978;8.472;2022-12-01T10:16:50;101406.13;;;4.38;100.00
4858;BME280;58975;51.978;8.472;2022-12-01T10:27:18;101398.50;;;4.52;100.00
4858;BME280;58975;51.978;8.472;2022-12-01T10:32:20;101397.03;;;4.67;100.00
4858;BME280;58975;51.978;8.472;2022-12-01T10:37:27;101394.59;;;4.62;100.00
4858;BME280;58975;51.978;8.472;2022-12-01T10:42:29;101386.59;;;4.64;100.00
4858;BME280;58975;51.978;8.472;2022-12-01T10:47:29;101389.44;;;4.38;100.00
4858;BME280;58975;51.978;8.472;2022-12-01T10:57:25;101388.69;;;4.56;100.00
4858;BME280;58975;51.978;8.472;2022-12-01T11:02:24;101390.63;;;4.94;100.00
4858;BME280;58975;51.978;8.472;2022-12-01T11:07:28;101387.47;;;5.06;100.00
4858;BME280;58975;51.978;8.472;2022-12-01T11:12:27;101390.59;;;5.16;100.00
4858;BME280;58975;51.978;8.472;2022-12-01T11:17:28;101385.00;;;5.02;100.00
4858;BME280;58975;51.978;8.472;2022-12-01T11:22:28;101392.13;;;4.80;100.00
4858;BME280;58975;51.978;8.472;2022-12-01T11:27:29;101397.22;;;4.84;100.00
4858;BME280;58975;51.978;8.472;2022-12-01T11:32:28;101390.88;;;4.88;100.00
4858;BME280;58975;51.978;8.472;2022-12-01T11:37:35;101391.97;;;4.83;100.00
4858;BME280;58975;51.978;8.472;2022-12-01T11:42:33;101393.88;;;4.79;100.00
4858;BME280;58975;51.978;8.472;2022-12-01T11:47:32;101398.81;;;4.23;100.00
4858;BME280;58975;51.978;8.472;2022-12-01T11:52:33;101396.63;;;4.11;100.00
4858;BME280;58975;51.978;8.472;2022-12-01T11:57:32;101393.81;;;4.15;100.00
4858;BME280;58975;51.978;8.472;2022-12-01T12:02:39;101387.41;;;4.22;100.00
4858;BME280;58975;51.978;8.472;2022-12-01T12:07:53;101382.69;;;4.31;100.00
4858;BME280;58975;51.978;8.472;2022-12-01T12:28:22;101373.00;;;4.08;100.00
4858;BME280;58975;51.978;8.472;2022-12-01T12:33:51;101376.09;;;4.19;100.00
4858;BME280;58975;51.978;8.472;2022-12-01T12:39:16;101369.53;;;4.29;100.00
4858;BME280;58975;51.978;8.472;2022-12-01T12:44:40;101368.16;;;4.42;100.00
4858;BME280;58975;51.978;8.472;2022-12-01T12:54:48;101362.53;;;4.93;100.00
4858;BME280;58975;51.978;8.472;2022-12-01T12:59:57;101351.84;;;4.96;100.00
4858;BME280;58975;51.978;8.472;2022-12-01T13:05:03;101355.38;;;4.95;100.00
4858;BME280;58975;51.978;8.472;2022-12-01T13:10:09;101358.25;;;4.47;100.00
4858;BME280;58975;51.978;8.472;2022-12-01T13:15:20;101351.94;;;3.85;100.00
4858;BME280;58975;51.978;8.472;2022-12-01T13:20:19;101353.88;;;4.03;100.00
4858;BME280;58975;51.978;8.472;2022-12-01T13:25:22;101352.31;;;4.20;100.00
4858;BME280;58975;51.978;8.472;2022-12-01T13:30:25;101342.06;;;4.13;100.00
4858;BME280;58975;51.978;8.472;2022-12-01T13:35:37;101338.03;;;3.81;100.00
4858;BME280;58975;51.978;8.472;2022-12-01T13:40:34;101341.09;;;3.69;100.00
4858;BME280;58975;51.978;8.472;2022-12-01T13:45:33;101350.75;;;3.70;100.00
4858;BME280;58975;51.978;8.472;2022-12-01T13:55:57;101350.03;;;3.65;100.00
4858;BME280;58975;51.978;8.472;2022-12-01T14:11:27;101355.31;;;3.65;100.00
4858;BME280;58975;51.978;8.472;2022-12-01T14:16:44;101350.25;;;3.60;100.00
4858;BME280;58975;51.978;8.472;2022-12-01T14:21:45;101354.50;;;3.40;100.00
4858;BME280;58975;51.978;8.472;2022-12-01T14:26:43;101350.97;;;3.41;100.00
4858;BME280;58975;51.978;8.472;2022-12-01T14:36:52;101355.28;;;3.42;100.00
4858;BME280;58975;51.978;8.472;2022-12-01T14:41:52;101355.25;;;3.43;100.00
4858;BME280;58975;51.978;8.472;2022-12-01T14:47:05;101372.66;;;3.47;100.00
4858;BME280;58975;51.978;8.472;2022-12-01T14:52:06;101368.56;;;3.39;100.00
4858;BME280;58975;51.978;8.472;2022-12-01T14:57:07;101377.81;;;3.25;100.00
4858;BME280;58975;51.978;8.472;2022-12-01T15:02:12;101387.50;;;3.25;100.00
4858;BME280;58975;51.978;8.472;2022-12-01T15:07:09;101391.16;;;3.21;100.00
4858;BME280;58975;51.978;8.472;2022-12-01T15:12:25;101377.28;;;3.16;100.00
4858;BME280;58975;51.978;8.472;2022-12-01T15:17:32;101364.16;;;3.14;100.00
4858;BME280;58975;51.978;8.472;2022-12-01T15:22:33;101364.38;;;3.08;100.00
4858;BME280;58975;51.978;8.472;2022-12-01T15:27:31;101350.53;;;3.03;100.00
4858;BME280;58975;51.978;8.472;2022-12-01T15:32:28;101353.41;;;2.96;100.00
4858;BME280;58975;51.978;8.472;2022-12-01T15:37:26;101355.34;;;2.91;100.00
4858;BME280;58975;51.978;8.472;2022-12-01T15:42:26;101363.28;;;2.89;100.00
4858;BME280;58975;51.978;8.472;2022-12-01T15:52:42;101377.91;;;2.98;100.00
4858;BME280;58975;51.978;8.472;2022-12-01T15:57:44;101357.81;;;2.95;100.00
4858;BME280;58975;51.978;8.472;2022-12-01T16:02:41;101358.16;;;2.86;100.00
4858;BME280;58975;51.978;8.472;2022-12-01T16:07:38;101362.84;;;2.76;100.00
4858;BME280;58975;51.978;8.472;2022-12-01T16:18:32;101368.84;;;2.80;100.00
4858;BME280;58975;51.978;8.472;2022-12-01T16:23:29;101356.09;;;2.68;100.00
4858;BME280;58975;51.978;8.472;2022-12-01T16:28:33;101368.34;;;2.69;100.00
4858;BME280;58975;51.978;8.472;2022-12-01T16:33:35;101361.22;;;2.72;100.00
4858;BME280;58975;51.978;8.472;2022-12-01T16:38:32;101357.72;;;2.72;100.00
4858;BME280;58975;51.978;8.472;2022-12-01T16:43:29;101353.19;;;2.77;100.00
4858;BME280;58975;51.978;8.472;2022-12-01T16:48:25;101356.81;;;2.73;100.00
4858;BME280;58975;51.978;8.472;2022-12-01T16:53:21;101361.31;;;2.69;100.00
4858;BME280;58975;51.978;8.472;2022-12-01T16:58:18;101362.19;;;2.70;100.00
4858;BME280;58975;51.978;8.472;2022-12-01T17:03:15;101361.44;;;2.66;100.00
4858;BME280;58975;51.978;8.472;2022-12-01T17:08:11;101361.56;;;2.62;100.00
4858;BME280;58975;51.978;8.472;2022-12-01T17:13:09;101369.38;;;2.65;100.00
4858;BME280;58975;51.978;8.472;2022-12-01T17:18:05;101372.00;;;2.65;100.00
4858;BME280;58975;51.978;8.472;2022-12-01T17:23:02;101379.06;;;2.63;100.00
4858;BME280;58975;51.978;8.472;2022-12-01T17:28:00;101379.00;;;2.64;100.00
4858;BME280;58975;51.978;8.472;2022-12-01T17:32:57;101384.38;;;2.61;100.00
4858;BME280;58975;51.978;8.472;2022-12-01T17:37:53;101381.00;;;2.58;100.00
4858;BME280;58975;51.978;8.472;2022-12-01T17:42:49;101383.47;;;2.62;100.00
4858;BME280;58975;51.978;8.472;2022-12-01T17:47:46;101388.81;;;2.59;100.00
4858;BME280;58975;51.978;8.472;2022-12-01T17:52:42;101387.00;;;2.61;100.00
4858;BME280;58975;51.978;8.472;2022-12-01T17:57:39;101392.13;;;2.66;100.00
4858;BME280;58975;51.978;8.472;2022-12-01T18:02:35;101392.41;;;2.57;100.00
4858;BME280;58975;51.978;8.472;2022-12-01T18:07:32;101386.34;;;2.55;100.00
4858;BME280;58975;51.978;8.472;2022-12-01T18:12:28;101394.69;;;2.39;100.00
4858;BME280;58975;51.978;8.472;2022-12-01T18:17:25;101388.41;;;2.45;100.00
4858;BME280;58975;51.978;8.472;2022-12-01T18:22:21;101381.13;;;2.25;100.00
4858;BME280;58975;51.978;8.472;2022-12-01T18:27:18;101396.91;;;2.25;100.00
4858;BME280;58975;51.978;8.472;2022-12-01T18:32:14;101397.69;;;2.27;100.00
4858;BME280;58975;51.978;8.472;2022-12-01T18:37:11;101389.66;;;2.33;100.00
4858;BME280;58975;51.978;8.472;2022-12-01T18:42:08;101390.88;;;2.22;100.00
4858;BME280;58975;51.978;8.472;2022-12-01T18:47:04;101388.28;;;2.20;100.00
4858;BME280;58975;51.978;8.472;2022-12-01T18:52:01;101385.75;;;2.17;100.00
4858;BME280;58975;51.978;8.472;2022-12-01T18:56:59;101391.00;;;2.19;100.00
4858;BME280;58975;51.978;8.472;2022-12-01T19:01:56;101392.38;;;2.01;100.00
4858;BME280;58975;51.978;8.472;2022-12-01T19:06:52;101383.34;;;2.11;100.00
4858;BME280;58975;51.978;8.472;2022-12-01T19:11:50;101383.47;;;2.07;100.00
4858;BME280;58975;51.978;8.472;2022-12-01T19:16:54;101386.47;;;1.95;100.00
4858;BME280;58975;51.978;8.472;2022-12-01T19:21:51;101387.31;;;1.95;100.00
4858;BME280;58975;51.978;8.472;2022-12-01T19:26:49;101384.59;;;1.98;100.00
4858;BME280;58975;51.978;8.472;2022-12-01T19:31:45;101384.59;;;1.98;100.00
4858;BME280;58975;51.978;8.472;2022-12-01T19:36:41;101388.72;;;2.07;100.00
4858;BME280;58975;51.978;8.472;2022-12-01T19:41:38;101380.78;;;2.08;100.00
4858;BME280;58975;51.978;8.472;2022-12-01T19:46:34;101379.06;;;2.07;100.00
4858;BME280;58975;51.978;8.472;2022-12-01T19:51:33;101380.75;;;2.10;100.00
4858;BME280;58975;51.978;8.472;2022-12-01T19:56:30;101376.75;;;1.97;100.00
4858;BME280;58975;51.978;8.472;2022-12-01T20:01:27;101382.19;;;1.90;100.00
4858;BME280;58975;51.978;8.472;2022-12-01T20:06:26;101386.47;;;1.95;100.00
4858;BME280;58975;51.978;8.472;2022-12-01T20:11:24;101380.44;;;1.91;100.00
4858;BME280;58975;51.978;8.472;2022-12-01T20:16:22;101375.84;;;1.98;100.00
4858;BME280;58975;51.978;8.472;2022-12-01T20:21:21;101371.25;;;2.04;100.00
4858;BME280;58975;51.978;8.472;2022-12-01T20:26:19;101369.81;;;1.94;100.00
4858;BME280;58975;51.978;8.472;2022-12-01T20:31:22;101369.06;;;1.90;100.00
4858;BME280;58975;51.978;8.472;2022-12-01T20:36:19;101370.69;;;1.95;100.00
4858;BME280;58975;51.978;8.472;2022-12-01T20:41:15;101368.97;;;1.94;100.00
4858;BME280;58975;51.978;8.472;2022-12-01T20:46:13;101365.31;;;1.99;100.00
4858;BME280;58975;51.978;8.472;2022-12-01T20:51:10;101362.09;;;1.89;100.00
4858;BME280;58975;51.978;8.472;2022-12-01T20:56:09;101368.41;;;1.84;100.00
4858;BME280;58975;51.978;8.472;2022-12-01T21:01:07;101365.91;;;1.79;100.00
4858;BME280;58975;51.978;8.472;2022-12-01T21:06:05;101363.22;;;1.81;100.00
4858;BME280;58975;51.978;8.472;2022-12-01T21:11:44;101359.41;;;1.91;100.00
4858;BME280;58975;51.978;8.472;2022-12-01T21:17:07;101345.44;;;1.90;100.00
4858;BME280;58975;51.978;8.472;2022-12-01T21:22:10;101343.66;;;1.91;100.00
4858;BME280;58975;51.978;8.472;2022-12-01T21:27:13;101346.53;;;1.83;100.00
4858;BME280;58975;51.978;8.472;2022-12-01T21:32:13;101349.16;;;1.83;100.00
4858;BME280;58975;51.978;8.472;2022-12-01T21:37:20;101340.66;;;1.74;100.00
4858;BME280;58975;51.978;8.472;2022-12-01T21:42:20;101338.16;;;1.69;100.00
4858;BME280;58975;51.978;8.472;2022-12-01T21:47:26;101326.97;;;1.64;100.00
4858;BME280;58975;51.978;8.472;2022-12-01T21:52:27;101323.59;;;1.59;100.00
4858;BME280;58975;51.978;8.472;2022-12-01T21:57:28;101319.13;;;1.63;100.00
4858;BME280;58975;51.978;8.472;2022-12-01T22:02:41;101318.25;;;1.62;100.00
4858;BME280;58975;51.978;8.472;2022-12-01T22:07:41;101312.31;;;1.56;100.00
4858;BME280;58975;51.978;8.472;2022-12-01T22:12:37;101306.78;;;1.65;100.00
4858;BME280;58975;51.978;8.472;2022-12-01T22:17:34;101312.88;;;1.67;100.00
4858;BME280;58975;51.978;8.472;2022-12-01T22:22:32;101312.69;;;1.73;100.00
4858;BME280;58975;51.978;8.472;2022-12-01T22:37:47;101307.34;;;1.76;100.00
4858;BME280;58975;51.978;8.472;2022-12-01T22:42:44;101299.31;;;1.80;100.00
4858;BME280;58975;51.978;8.472;2022-12-01T22:47:40;101299.41;;;1.77;100.00
4858;BME280;58975;51.978;8.472;2022-12-01T22:52:37;101297.75;;;1.75;100.00
4858;BME280;58975;51.978;8.472;2022-12-01T22:57:33;101295.13;;;1.75;100.00
4858;BME280;58975;51.978;8.472;2022-12-01T23:02:33;101298.91;;;1.65;100.00
4858;BME280;58975;51.978;8.472;2022-12-01T23:07:35;101298.16;;;1.61;100.00
4858;BME280;58975;51.978;8.472;2022-12-01T23:12:33;101292.22;;;1.55;100.00
4858;BME280;58975;51.978;8.472;2022-12-01T23:17:31;101283.16;;;1.65;100.00
4858;BME280;58975;51.978;8.472;2022-12-01T23:22:29;101279.69;;;1.64;100.00
4858;BME280;58975;51.978;8.472;2022-12-01T23:27:25;101275.34;;;1.63;100.00
4858;BME280;58975;51.978;8.472;2022-12-01T23:32:22;101271.59;;;1.72;100.00
4858;BME280;58975;51.978;8.472;2022-12-01T23:37:32;101263.94;;;1.64;100.00
4858;BME280;58975;51.978;8.472;2022-12-01T23:42:29;101268.88;;;1.75;100.00
4858;BME280;58975;51.978;8.472;2022-12-01T23:47:28;101254.34;;;1.63;100.00
4858;BME280;58975;51.978;8.472;2022-12-01T23:52:26;101249.97;;;1.64;100.00
4858;BME280;58975;51.978;8.472;2022-12-01T23:57:25;101254.28;;;1.65;100.00
